Time;durP1;ratioP1;P1;durP2;ratioP2;P2;SDS_P1;SDS_P2;PMS_P1;PMS_P2;Temp;Humidity;BMP_temperature;BMP_pressure;BME280_temperature;BME280_humidity;BME280_pressure;Samples;Min_cycle;Max_cycle;Signal;HPM_P1;HPM_P2
2021/10/17 00:00:31;;;;;;;4.50;2.27;;;;;;;3.78;80.02;97035.34;1802340;78;21069;-81
2021/10/17 00:02:58;;;;;;;4.90;2.20;;;;;;;3.75;80.12;97030.45;1792597;78;21070;-80
2021/10/17 00:05:28;;;;;;;5.15;2.27;;;;;;;3.71;80.07;97033.72;1791965;77;20991;-81
2021/10/17 00:07:54;;;;;;;3.08;1.85;;;;;;;3.70;80.20;97036.41;1798628;77;21399;-80
2021/10/17 00:10:26;;;;;;;4.12;1.85;;;;;;;3.71;80.44;97032.90;1783821;78;21098;-80
2021/10/17 00:12:54;;;;;;;2.33;1.82;;;;;;;3.74;80.33;97031.36;1789140;77;21142;-80
2021/10/17 00:15:20;;;;;;;5.17;2.60;;;;;;;3.74;80.19;97036.50;1770167;80;21063;-80
2021/10/17 00:17:46;;;;;;;5.12;1.98;;;;;;;3.72;80.12;97035.81;1831819;76;21077;-81
2021/10/17 00:20:14;;;;;;;4.42;1.85;;;;;;;3.70;80.06;97032.55;1765560;80;21523;-80
2021/10/17 00:22:40;;;;;;;3.85;2.60;;;;;;;3.66;80.11;97037.13;1821733;78;21034;-80
2021/10/17 00:25:07;;;;;;;4.97;2.30;;;;;;;3.61;80.20;97034.94;1822153;77;21082;-81
2021/10/17 00:27:32;;;;;;;4.15;1.80;;;;;;;3.59;80.24;97039.39;1832615;76;21042;-80
2021/10/17 00:29:58;;;;;;;3.52;1.80;;;;;;;3.58;80.11;97036.94;1782967;77;21078;-80
2021/10/17 00:32:24;;;;;;;4.92;2.42;;;;;;;3.57;80.17;97031.42;1783470;77;21050;-80
2021/10/17 00:34:50;;;;;;;4.22;1.90;;;;;;;3.57;80.16;97040.42;1797355;77;21070;-80
2021/10/17 00:37:18;;;;;;;5.47;2.72;;;;;;;3.57;80.25;97033.53;1803843;77;21179;-80
2021/10/17 00:39:45;;;;;;;4.92;2.10;;;;;;;3.57;80.55;97033.53;1785661;78;21024;-80
2021/10/17 00:42:12;;;;;;;4.17;2.12;;;;;;;3.55;80.60;97036.69;1766130;78;21046;-80
2021/10/17 00:44:38;;;;;;;4.53;2.40;;;;;;;3.51;80.41;97028.08;1792212;78;21047;-80
2021/10/17 00:47:05;;;;;;;6.92;2.00;;;;;;;3.49;80.50;97031.23;1768406;78;21189;-80
2021/10/17 00:49:30;;;;;;;5.05;1.95;;;;;;;3.48;80.66;97026.57;1784093;77;21460;-80
2021/10/17 00:51:56;;;;;;;3.83;2.20;;;;;;;3.50;80.75;97029.02;1793439;77;21076;-80
2021/10/17 00:54:22;;;;;;;6.03;1.85;;;;;;;3.50;80.65;97020.84;1829895;76;21177;-81
2021/10/17 00:56:48;;;;;;;3.70;2.45;;;;;;;3.52;80.55;97023.28;1820998;76;21102;-80
2021/10/17 00:59:14;;;;;;;4.65;2.90;;;;;;;3.50;80.64;97028.55;1786556;77;21148;-80
2021/10/17 01:01:40;;;;;;;6.62;2.40;;;;;;;3.48;80.72;97020.14;1806040;76;21012;-81
2021/10/17 01:04:05;;;;;;;6.00;2.45;;;;;;;3.46;80.85;97017.36;1799860;77;21065;-80
2021/10/17 01:06:32;;;;;;;3.83;1.98;;;;;;;3.44;81.08;97015.38;1810027;77;21442;-80
2021/10/17 01:08:57;;;;;;;3.85;1.95;;;;;;;3.45;80.94;97011.41;1804627;77;21060;-81
2021/10/17 01:11:23;;;;;;;9.38;2.45;;;;;;;3.45;80.82;97016.55;1762675;79;21098;-80
2021/10/17 01:13:49;;;;;;;5.20;2.17;;;;;;;3.46;80.87;97023.31;1719565;80;21080;-80
2021/10/17 01:16:15;;;;;;;4.00;2.10;;;;;;;3.46;80.67;97015.60;1755558;79;21409;-80
2021/10/17 01:18:41;;;;;;;2.83;2.20;;;;;;;3.45;80.69;97019.11;1784999;77;21142;-81
2021/10/17 01:21:06;;;;;;;3.50;2.30;;;;;;;3.44;80.88;97019.23;1776020;77;21114;-80
2021/10/17 01:23:33;;;;;;;3.42;2.20;;;;;;;3.42;80.91;97023.22;1825041;77;21087;-80
2021/10/17 01:25:58;;;;;;;6.37;2.40;;;;;;;3.39;80.84;97020.86;1800827;77;21582;-80
2021/10/17 01:28:24;;;;;;;4.30;2.02;;;;;;;3.40;80.87;97020.39;1808148;76;21102;-80
2021/10/17 01:30:50;;;;;;;3.30;1.62;;;;;;;3.42;80.79;97019.83;1760722;78;21094;-81
2021/10/17 01:33:17;;;;;;;4.58;2.60;;;;;;;3.43;80.85;97015.85;1768688;78;21114;-80
2021/10/17 01:35:43;;;;;;;3.30;2.45;;;;;;;3.45;81.07;97013.97;1788269;78;21095;-80
2021/10/17 01:38:10;;;;;;;3.95;2.50;;;;;;;3.46;81.08;97015.60;1743480;79;21438;-80
2021/10/17 01:40:36;;;;;;;5.47;2.62;;;;;;;3.46;80.99;97013.50;1732779;79;21220;-81
2021/10/17 01:43:03;;;;;;;5.20;2.70;;;;;;;3.44;81.28;97011.06;1745598;79;21593;-80
2021/10/17 01:45:29;;;;;;;4.08;2.20;;;;;;;3.44;81.26;97012.34;1749673;80;21165;-80
2021/10/17 01:47:55;;;;;;;3.08;2.20;;;;;;;3.43;81.22;97009.43;1758889;80;21099;-80
2021/10/17 01:50:21;;;;;;;5.00;1.90;;;;;;;3.46;81.26;97014.79;1718836;80;21082;-81
2021/10/17 01:52:48;;;;;;;8.63;3.22;;;;;;;3.49;81.37;97010.21;1769688;78;21486;-80
2021/10/17 01:55:14;;;;;;;6.00;2.42;;;;;;;3.53;81.34;97009.50;1756382;79;21462;-80
2021/10/17 01:57:39;;;;;;;3.45;2.30;;;;;;;3.55;81.29;97007.61;1792106;77;21105;-80
2021/10/17 02:00:08;;;;;;;6.47;4.10;;;;;;;3.56;81.37;97005.39;1799247;77;21162;-81
2021/10/17 02:02:34;;;;;;;3.10;2.80;;;;;;;3.56;81.30;97007.48;1757250;78;21106;-80
2021/10/17 02:04:59;;;;;;;3.55;2.35;;;;;;;3.55;81.36;97006.33;1782972;77;21074;-80
2021/10/17 02:07:25;;;;;;;6.33;2.98;;;;;;;3.55;81.44;97008.42;1800187;77;21067;-80
2021/10/17 02:09:51;;;;;;;4.85;2.00;;;;;;;3.55;81.38;97005.86;1791149;78;21491;-80
2021/10/17 02:12:21;;;;;;;4.67;2.05;;;;;;;3.58;81.44;97007.39;1785518;77;21096;-80
2021/10/17 02:14:45;;;;;;;5.87;2.90;;;;;;;3.59;81.33;96998.27;1796550;77;21185;-81
2021/10/17 02:17:11;;;;;;;5.60;2.58;;;;;;;3.60;81.35;96999.91;1780524;79;21080;-80
2021/10/17 02:19:36;;;;;;;4.35;2.52;;;;;;;3.61;81.44;96999.44;1802873;76;21173;-80
2021/10/17 02:22:02;;;;;;;3.55;2.42;;;;;;;3.60;81.74;96999.91;1780993;77;21110;-80
2021/10/17 02:24:29;;;;;;;3.33;2.50;;;;;;;3.58;81.91;97006.11;1780779;79;21469;-80
2021/10/17 02:26:55;;;;;;;4.35;2.02;;;;;;;3.58;81.66;97001.78;1776906;78;21078;-80
2021/10/17 02:29:20;;;;;;;5.45;2.62;;;;;;;3.60;81.65;96998.62;1783421;77;21089;-80
2021/10/17 02:31:46;;;;;;;5.62;2.65;;;;;;;3.64;81.28;96997.08;1782835;78;21143;-80
2021/10/17 02:34:12;;;;;;;6.28;2.80;;;;;;;3.64;81.04;96991.94;1748995;79;21051;-80
2021/10/17 02:36:38;;;;;;;3.27;2.42;;;;;;;3.60;81.09;96993.48;1774288;77;21134;-80
2021/10/17 02:39:04;;;;;;;3.12;2.62;;;;;;;3.59;80.85;96989.75;1776501;77;21097;-80
2021/10/17 02:41:29;;;;;;;3.33;2.60;;;;;;;3.55;80.80;96985.77;1737229;78;21041;-80
2021/10/17 02:43:56;;;;;;;3.70;2.37;;;;;;;3.50;80.71;96979.73;1767898;79;21560;-80
2021/10/17 02:46:21;;;;;;;3.15;2.70;;;;;;;3.46;80.65;96984.77;1778939;79;21136;-80
2021/10/17 02:48:47;;;;;;;2.10;1.80;;;;;;;3.46;80.62;96976.25;1766749;77;21240;-80
2021/10/17 02:51:13;;;;;;;4.12;2.30;;;;;;;3.44;80.50;96978.13;1787059;77;21119;-80
2021/10/17 02:53:39;;;;;;;4.85;2.85;;;;;;;3.44;80.64;96977.66;1754329;78;21036;-80
2021/10/17 02:56:05;;;;;;;4.67;2.62;;;;;;;3.42;80.71;96976.97;1771819;79;21091;-80
2021/10/17 02:58:30;;;;;;;4.08;2.60;;;;;;;3.40;80.93;96976.72;1820898;76;21437;-80
2021/10/17 03:00:58;;;;;;;5.10;2.30;;;;;;;3.37;81.04;96977.78;1796376;77;21110;-80
2021/10/17 03:03:23;;;;;;;3.35;2.08;;;;;;;3.35;80.96;96978.38;1774210;77;21047;-81
2021/10/17 03:05:49;;;;;;;2.35;1.85;;;;;;;3.35;80.93;96973.24;1815942;77;21244;-80
2021/10/17 03:08:15;;;;;;;2.60;2.02;;;;;;;3.35;81.07;96977.09;1804678;76;21162;-81
2021/10/17 03:10:41;;;;;;;5.80;2.65;;;;;;;3.37;81.23;96975.22;1776653;78;21054;-80
2021/10/17 03:13:07;;;;;;;4.83;3.05;;;;;;;3.37;81.15;96976.97;1779345;77;21040;-80
2021/10/17 03:15:33;;;;;;;3.20;2.70;;;;;;;3.35;81.22;96975.00;1790597;78;21181;-80
2021/10/17 03:17:59;;;;;;;8.15;2.95;;;;;;;3.33;81.16;96969.98;1782859;77;21031;-80
2021/10/17 03:20:24;;;;;;;4.03;2.10;;;;;;;3.32;81.30;96964.50;1807944;76;21118;-81
2021/10/17 03:22:50;;;;;;;5.15;2.85;;;;;;;3.32;81.23;96963.22;1745876;80;21172;-81
2021/10/17 03:25:16;;;;;;;4.87;2.35;;;;;;;3.34;81.07;96973.37;1784264;78;21083;-80
2021/10/17 03:27:42;;;;;;;6.28;2.40;;;;;;;3.35;81.08;96966.01;1824060;77;21028;-81
2021/10/17 03:30:09;;;;;;;5.12;2.47;;;;;;;3.35;80.89;96966.83;1808623;77;21067;-80
2021/10/17 03:32:34;;;;;;;5.12;3.67;;;;;;;3.33;81.13;96968.70;1800891;77;21067;-80
2021/10/17 03:35:03;;;;;;;2.98;2.50;;;;;;;3.33;81.29;96965.32;1803838;77;21102;-80
2021/10/17 03:37:31;;;;;;;3.42;2.58;;;;;;;3.29;81.37;96969.89;1806282;76;21084;-80
2021/10/17 03:39:58;;;;;;;4.45;2.42;;;;;;;3.25;81.47;96966.76;1803238;77;21078;-80
2021/10/17 03:42:23;;;;;;;6.50;2.22;;;;;;;3.23;81.71;96958.33;1803613;77;21522;-81
2021/10/17 03:44:50;;;;;;;6.72;2.20;;;;;;;3.25;81.88;96964.62;1795955;77;21119;-80
2021/10/17 03:47:15;;;;;;;4.53;2.15;;;;;;;3.26;81.93;96963.25;1804663;77;21079;-80
2021/10/17 03:52:06;;;;;;;3.25;2.42;;;;;;;3.28;81.68;96957.52;1768870;78;21126;-80
2021/10/17 03:54:35;;;;;;;4.40;2.72;;;;;;;3.28;81.58;96960.56;1779487;78;21033;-80
2021/10/17 03:57:01;;;;;;;5.03;2.40;;;;;;;3.24;81.75;96954.02;1762348;79;21107;-81
2021/10/17 03:59:26;;;;;;;3.80;2.30;;;;;;;3.24;81.82;96959.15;1751489;79;21132;-81
2021/10/17 04:01:52;;;;;;;5.08;2.10;;;;;;;3.25;81.84;96963.34;1799142;78;21126;-80
2021/10/17 04:04:18;;;;;;;4.35;2.20;;;;;;;3.25;82.04;96959.49;1760913;79;21106;-80
2021/10/17 04:06:43;;;;;;;5.22;2.50;;;;;;;3.27;82.04;96958.93;1773216;78;21052;-80
2021/10/17 04:09:10;;;;;;;6.15;2.62;;;;;;;3.28;82.00;96951.56;1759071;80;21063;-80
2021/10/17 04:11:35;;;;;;;3.75;2.45;;;;;;;3.28;82.12;96956.23;1773250;78;21124;-80
2021/10/17 04:14:01;;;;;;;4.20;2.52;;;;;;;3.26;82.05;96951.69;1759321;78;21098;-80
2021/10/17 04:16:28;;;;;;;6.05;3.25;;;;;;;3.24;82.34;96957.39;1751780;80;21079;-81
2021/10/17 04:18:54;;;;;;;3.30;2.15;;;;;;;3.23;82.36;96954.95;1769296;78;21367;-80
2021/10/17 04:21:20;;;;;;;5.35;2.20;;;;;;;3.23;82.33;96957.05;1789132;77;21556;-80
2021/10/17 04:23:45;;;;;;;5.00;2.40;;;;;;;3.25;82.16;96962.91;1771123;78;21119;-80
2021/10/17 04:26:11;;;;;;;5.30;3.08;;;;;;;3.26;82.07;96955.55;1797732;77;22632;-80
2021/10/17 04:28:37;;;;;;;3.60;2.50;;;;;;;3.26;81.91;96952.98;1791741;78;21089;-80
2021/10/17 04:31:03;;;;;;;3.15;2.00;;;;;;;3.25;81.89;96954.36;1793312;77;21113;-80
2021/10/17 04:33:29;;;;;;;9.03;3.30;;;;;;;3.25;81.99;96962.91;1793856;78;21429;-80
2021/10/17 04:35:56;;;;;;;5.15;2.67;;;;;;;3.23;81.99;96960.09;1796374;77;21080;-80
2021/10/17 04:38:22;;;;;;;4.47;2.10;;;;;;;3.24;82.12;96959.96;1774656;78;21464;-80
2021/10/17 04:40:48;;;;;;;5.00;2.20;;;;;;;3.26;82.22;96958.11;1783087;78;21121;-80
2021/10/17 04:43:13;;;;;;;4.70;2.42;;;;;;;3.30;82.36;96953.07;1789763;78;21027;-80
2021/10/17 04:45:43;;;;;;;5.05;2.30;;;;;;;3.33;82.33;96952.48;1764861;79;21106;-80
2021/10/17 04:48:09;;;;;;;5.45;2.40;;;;;;;3.35;82.36;96950.13;1764580;77;21100;-80
2021/10/17 04:50:36;;;;;;;7.17;2.80;;;;;;;3.36;82.20;96954.32;1809482;77;21047;-80
2021/10/17 04:53:02;;;;;;;3.85;2.80;;;;;;;3.35;82.19;96951.41;1794188;77;21016;-80
2021/10/17 04:55:29;;;;;;;3.77;2.72;;;;;;;3.33;82.17;96952.01;1753533;80;22394;-80
2021/10/17 04:57:56;;;;;;;6.30;2.83;;;;;;;3.33;82.31;96961.00;1810475;77;21110;-80
2021/10/17 05:00:21;;;;;;;5.92;2.42;;;;;;;3.31;82.34;96952.60;1794995;78;22057;-80
2021/10/17 05:02:47;;;;;;;4.53;2.20;;;;;;;3.35;82.21;96959.59;1751693;79;21091;-80
2021/10/17 05:05:13;;;;;;;3.22;2.60;;;;;;;3.37;82.21;96957.70;1786349;79;21061;-81
2021/10/17 05:07:39;;;;;;;4.33;2.70;;;;;;;3.38;82.19;96957.58;1798964;77;21170;-80
2021/10/17 05:10:05;;;;;;;4.15;2.40;;;;;;;3.38;82.08;96955.48;1706407;79;21110;-80
2021/10/17 05:12:31;;;;;;;7.00;2.80;;;;;;;3.38;81.94;96960.15;1751724;79;21620;-80
2021/10/17 05:14:57;;;;;;;4.12;2.75;;;;;;;3.37;82.11;96965.41;1760651;80;21149;-80
2021/10/17 05:17:23;;;;;;;4.92;2.47;;;;;;;3.35;82.20;96965.54;1779715;79;21094;-80
2021/10/17 05:19:48;;;;;;;4.58;2.27;;;;;;;3.36;82.11;96965.88;1756607;80;21157;-80
2021/10/17 05:22:14;;;;;;;4.33;2.30;;;;;;;3.37;82.08;96964.94;1757227;80;21158;-81
2021/10/17 05:24:40;;;;;;;2.55;2.35;;;;;;;3.40;82.28;96964.69;1752890;80;21047;-80
2021/10/17 05:27:05;;;;;;;5.05;2.35;;;;;;;3.45;82.35;96970.77;1764562;79;21523;-80
2021/10/17 05:29:31;;;;;;;4.55;2.45;;;;;;;3.45;82.29;96968.20;1761075;77;21469;-80
2021/10/17 05:31:57;;;;;;;5.47;2.60;;;;;;;3.48;82.52;96977.75;1778956;78;21079;-80
2021/10/17 05:34:23;;;;;;;7.05;2.37;;;;;;;3.49;82.69;96979.85;1750272;78;21169;-80
2021/10/17 05:36:50;;;;;;;5.00;2.12;;;;;;;3.51;82.89;96982.64;1776482;78;21059;-81
2021/10/17 05:39:15;;;;;;;4.95;2.52;;;;;;;3.57;83.00;96991.59;1794753;76;21043;-80
2021/10/17 05:41:41;;;;;;;5.45;2.12;;;;;;;3.61;82.93;96993.01;1773052;78;21094;-80
2021/10/17 05:44:07;;;;;;;5.15;2.22;;;;;;;3.66;82.74;96996.02;1763712;79;21028;-81
2021/10/17 05:46:33;;;;;;;4.60;2.40;;;;;;;3.72;82.81;97004.97;1762163;80;21056;-80
2021/10/17 05:48:59;;;;;;;8.35;5.90;;;;;;;3.77;82.78;96998.54;1815479;77;21077;-80
2021/10/17 05:51:24;;;;;;;6.87;3.92;;;;;;;3.79;82.16;97009.52;1780541;77;21055;-80
2021/10/17 05:53:50;;;;;;;3.92;2.42;;;;;;;3.80;82.25;97010.33;1783203;77;21063;-81
2021/10/17 05:56:16;;;;;;;5.62;2.20;;;;;;;3.81;82.41;97008.91;1767732;79;21063;-80
2021/10/17 05:58:42;;;;;;;3.35;2.45;;;;;;;3.86;82.65;97011.09;1772760;78;21134;-80
2021/10/17 06:01:07;;;;;;;2.87;1.90;;;;;;;3.90;82.54;97012.03;1763684;79;21383;-80
2021/10/17 06:03:33;;;;;;;4.30;2.22;;;;;;;3.94;82.33;97011.31;1779994;78;21051;-81
2021/10/17 06:06:01;;;;;;;3.10;2.15;;;;;;;3.98;82.15;97008.83;1769163;78;21112;-80
2021/10/17 06:08:28;;;;;;;4.83;2.25;;;;;;;4.00;82.00;97008.70;1767500;77;21126;-79
2021/10/17 06:10:54;;;;;;;3.17;2.30;;;;;;;4.00;82.30;97016.41;1795179;77;21051;-80
2021/10/17 06:13:21;;;;;;;4.62;2.45;;;;;;;4.02;82.23;97025.62;1782626;77;21042;-80
2021/10/17 06:15:47;;;;;;;4.97;2.12;;;;;;;4.04;82.34;97010.88;1746853;80;21249;-80
2021/10/17 06:18:13;;;;;;;4.37;2.30;;;;;;;4.09;82.37;97018.24;1799785;77;21163;-80
2021/10/17 06:20:38;;;;;;;3.92;1.98;;;;;;;4.12;82.11;97022.66;1781563;77;21067;-80
2021/10/17 06:23:04;;;;;;;3.35;2.50;;;;;;;4.16;82.07;97017.59;1741482;80;21162;-81
2021/10/17 06:25:30;;;;;;;4.33;2.77;;;;;;;4.20;82.07;97022.83;1798432;77;21028;-80
2021/10/17 06:27:56;;;;;;;4.22;2.30;;;;;;;4.24;82.21;97018.27;1789239;77;21552;-81
2021/10/17 06:30:22;;;;;;;3.85;2.60;;;;;;;4.26;82.08;97022.00;1792373;79;21404;-80
2021/10/17 06:32:48;;;;;;;4.12;2.42;;;;;;;4.27;81.96;97026.20;1786465;79;21229;-81
2021/10/17 06:35:16;;;;;;;3.27;2.70;;;;;;;4.27;82.04;97025.73;1780587;78;21099;-80
2021/10/17 06:37:42;;;;;;;4.47;2.33;;;;;;;4.31;82.27;97015.99;1754537;80;21066;-80
2021/10/17 06:40:10;;;;;;;2.30;1.62;;;;;;;4.35;82.00;97025.89;1734260;80;21067;-80
2021/10/17 06:42:36;;;;;;;2.35;2.15;;;;;;;4.41;82.04;97022.02;1754242;80;21170;-80
2021/10/17 06:45:02;;;;;;;3.62;2.10;;;;;;;4.50;82.10;97022.52;1750256;79;21039;-80
2021/10/17 06:47:28;;;;;;;3.87;2.58;;;;;;;4.57;82.11;97023.66;1759901;80;21127;-80
2021/10/17 06:49:54;;;;;;;4.12;2.58;;;;;;;4.62;82.03;97028.41;1736423;80;21587;-80
2021/10/17 06:52:20;;;;;;;3.70;2.98;;;;;;;4.66;81.87;97022.05;1760363;80;21048;-81
2021/10/17 06:54:46;;;;;;;4.22;2.87;;;;;;;4.69;81.67;97025.17;1735497;81;21098;-80
2021/10/17 06:57:11;;;;;;;3.83;2.20;;;;;;;4.73;81.72;97027.04;1746131;81;21105;-81
2021/10/17 06:59:37;;;;;;;3.10;2.10;;;;;;;4.77;81.54;97029.69;1739352;80;21221;-80
2021/10/17 07:02:03;;;;;;;5.85;2.58;;;;;;;4.82;81.38;97030.11;1755087;79;21118;-81
2021/10/17 07:04:28;;;;;;;3.80;2.40;;;;;;;4.84;81.31;97035.94;1759753;79;21462;-80
2021/10/17 07:06:54;;;;;;;4.97;3.85;;;;;;;4.83;81.25;97032.55;1733095;82;21225;-80
2021/10/17 07:09:20;;;;;;;4.05;2.83;;;;;;;4.83;81.27;97027.40;1763790;79;21012;-80
2021/10/17 07:11:46;;;;;;;4.62;3.02;;;;;;;4.87;81.27;97035.67;1756989;80;21149;-80
2021/10/17 07:14:11;;;;;;;4.55;2.80;;;;;;;4.91;81.46;97035.78;1749427;80;21391;-80
2021/10/17 07:16:37;;;;;;;4.92;2.75;;;;;;;4.95;81.57;97037.14;1747477;80;21067;-80
2021/10/17 07:19:03;;;;;;;3.45;2.15;;;;;;;4.99;81.53;97037.69;1758067;79;21468;-80
2021/10/17 07:21:29;;;;;;;2.45;2.20;;;;;;;5.05;81.53;97041.05;1757708;79;21058;-80
2021/10/17 07:23:55;;;;;;;4.00;3.02;;;;;;;5.11;81.48;97037.45;1749584;80;21050;-81
2021/10/17 07:26:21;;;;;;;3.08;2.55;;;;;;;5.20;81.47;97045.33;1737182;81;21126;-80
2021/10/17 07:28:47;;;;;;;3.85;3.05;;;;;;;5.26;81.43;97044.34;1742668;79;21173;-81
2021/10/17 07:31:13;;;;;;;3.60;2.45;;;;;;;5.31;81.36;97042.17;1726179;81;21146;-80
2021/10/17 07:33:39;;;;;;;3.95;2.42;;;;;;;5.33;81.38;97045.91;1743579;80;21466;-80
2021/10/17 07:36:06;;;;;;;4.55;2.22;;;;;;;5.35;81.31;97047.40;1693342;81;21182;-80
2021/10/17 07:38:33;;;;;;;2.87;2.25;;;;;;;5.40;81.01;97048.31;1701385;82;21158;-80
2021/10/17 07:41:01;;;;;;;3.75;2.83;;;;;;;5.49;81.08;97050.08;1764846;80;21059;-81
2021/10/17 07:43:26;;;;;;;2.95;2.15;;;;;;;5.56;80.92;97046.03;1757245;80;21481;-80
2021/10/17 07:45:52;;;;;;;3.98;3.58;;;;;;;5.64;80.65;97051.31;1754839;80;21118;-81
2021/10/17 07:48:18;;;;;;;4.10;2.83;;;;;;;5.71;80.54;97045.16;1734708;82;21072;-80
2021/10/17 07:50:44;;;;;;;5.35;3.30;;;;;;;5.77;80.35;97049.77;1720520;81;21111;-81
2021/10/17 07:53:10;;;;;;;5.03;3.70;;;;;;;5.83;80.12;97050.50;1750411;80;21087;-80
2021/10/17 07:55:37;;;;;;;7.55;4.25;;;;;;;5.88;80.01;97047.06;1774369;80;21194;-81
2021/10/17 07:58:03;;;;;;;6.25;3.85;;;;;;;5.93;79.79;97043.62;1762739;78;21538;-81
2021/10/17 08:00:30;;;;;;;6.28;4.65;;;;;;;6.02;79.36;97045.88;1787687;77;21469;-80
2021/10/17 08:02:57;;;;;;;11.43;6.87;;;;;;;6.12;79.07;97045.37;1784958;79;21034;-80
2021/10/17 08:05:23;;;;;;;14.13;7.53;;;;;;;6.24;78.78;97040.41;1802294;77;21170;-81
2021/10/17 08:07:49;;;;;;;7.75;5.67;;;;;;;6.37;78.77;97039.30;1766764;79;21071;-81
2021/10/17 08:10:15;;;;;;;9.65;5.92;;;;;;;6.49;78.24;97040.73;1718076;81;21100;-81
2021/10/17 08:12:40;;;;;;;8.20;5.50;;;;;;;6.59;77.96;97037.19;1726348;81;21089;-80
2021/10/17 08:15:07;;;;;;;14.55;8.40;;;;;;;6.70;77.61;97041.86;1704024;82;21052;-81
2021/10/17 08:17:35;;;;;;;8.93;5.25;;;;;;;6.81;77.89;97046.34;1731799;80;21130;-81
2021/10/17 08:20:02;;;;;;;7.83;4.22;;;;;;;6.93;77.42;97043.92;1731039;80;21114;-81
2021/10/17 08:22:27;;;;;;;7.28;4.37;;;;;;;7.06;77.28;97045.38;1750145;80;21079;-81
2021/10/17 08:24:53;;;;;;;7.87;5.22;;;;;;;7.21;76.55;97051.21;1739552;80;21402;-81
2021/10/17 08:27:19;;;;;;;8.08;4.67;;;;;;;7.36;75.52;97048.14;1735299;79;21123;-81
2021/10/17 08:29:45;;;;;;;9.65;6.53;;;;;;;7.48;74.37;97050.83;1773417;77;21099;-81
2021/10/17 08:32:11;;;;;;;14.98;6.53;;;;;;;7.58;74.76;97055.48;1734787;81;21220;-81
2021/10/17 08:34:36;;;;;;;29.35;14.10;;;;;;;7.68;74.25;97052.36;1750372;80;21099;-81
2021/10/17 08:37:02;;;;;;;20.37;11.90;;;;;;;7.80;74.33;97060.20;1780006;78;21006;-82
2021/10/17 08:39:29;;;;;;;12.50;6.33;;;;;;;7.90;74.53;97048.50;1741810;80;21168;-81
2021/10/17 08:41:54;;;;;;;9.65;5.55;;;;;;;7.99;72.23;97053.28;1755551;79;21067;-81
2021/10/17 08:44:20;;;;;;;18.98;9.95;;;;;;;8.04;72.09;97049.75;1768411;79;21111;-81
2021/10/17 08:46:46;;;;;;;25.52;12.28;;;;;;;8.08;72.01;97051.89;1785088;79;21226;-81
2021/10/17 08:49:12;;;;;;;8.23;5.65;;;;;;;8.12;71.50;97052.39;1764633;80;21019;-81
2021/10/17 08:51:38;;;;;;;4.92;3.85;;;;;;;8.17;70.31;97046.31;1813036;78;21554;-81
2021/10/17 08:54:05;;;;;;;8.83;5.20;;;;;;;8.22;70.56;97046.66;1784123;78;21051;-81
2021/10/17 08:56:31;;;;;;;4.95;4.03;;;;;;;8.25;69.39;97042.47;1746927;80;21563;-81
2021/10/17 08:58:57;;;;;;;6.67;3.27;;;;;;;8.29;68.82;97043.78;1790533;79;21039;-81
2021/10/17 09:01:23;;;;;;;4.17;2.75;;;;;;;8.32;68.68;97042.21;1786865;78;21064;-81
2021/10/17 09:04:01;;;;;;;5.55;3.40;;;;;;;8.37;67.84;97039.19;1736021;81;21138;-81
2021/10/17 09:06:29;;;;;;;4.90;3.00;;;;;;;8.43;67.95;97040.68;1794413;77;21007;-81
2021/10/17 09:09:18;;;;;;;6.83;3.70;;;;;;;8.49;67.57;97040.58;1777796;80;21151;-81
2021/10/17 09:11:44;;;;;;;4.53;2.70;;;;;;;8.50;67.10;97042.68;1745867;80;21390;-81
2021/10/17 09:14:16;;;;;;;5.67;3.12;;;;;;;8.52;67.24;97042.85;1762269;80;21125;-81
2021/10/17 09:16:44;;;;;;;5.08;3.35;;;;;;;8.56;66.71;97046.75;1780823;78;21067;-81
2021/10/17 09:19:16;;;;;;;3.15;2.35;;;;;;;8.59;66.02;97053.41;1763251;80;21467;-81
2021/10/17 09:22:03;;;;;;;5.40;2.80;;;;;;;8.59;64.96;97050.33;1762000;80;21107;-81
2021/10/17 09:24:41;;;;;;;5.62;3.77;;;;;;;8.57;65.07;97047.09;1754441;80;21016;-81
2021/10/17 09:27:17;;;;;;;5.87;3.47;;;;;;;8.61;65.56;97048.88;1765467;79;21380;-81
2021/10/17 09:29:52;;;;;;;5.35;2.70;;;;;;;8.62;66.21;97050.50;1763361;79;21027;-81
2021/10/17 09:32:22;;;;;;;7.10;3.12;;;;;;;8.63;66.70;97047.79;1753178;79;21616;-81
2021/10/17 09:35:05;;;;;;;4.28;2.52;;;;;;;8.61;65.79;97041.11;1755296;78;21150;-81
2021/10/17 09:37:34;;;;;;;3.87;2.70;;;;;;;8.51;62.21;97049.48;1783910;78;21071;-81
2021/10/17 09:40:21;;;;;;;6.53;3.20;;;;;;;8.34;64.74;97050.67;1807330;79;21045;-81
2021/10/17 09:43:05;;;;;;;6.30;3.50;;;;;;;8.27;65.26;97050.08;1787780;78;21602;-81
2021/10/17 09:45:31;;;;;;;3.65;3.02;;;;;;;8.26;66.61;97048.45;1851609;76;21134;-82
2021/10/17 09:47:59;;;;;;;5.17;3.25;;;;;;;8.32;65.85;97042.21;1820872;78;21093;-81
2021/10/17 09:50:25;;;;;;;4.97;3.65;;;;;;;8.37;67.65;97041.78;1812466;78;21097;-82
2021/10/17 09:53:06;;;;;;;5.47;3.10;;;;;;;8.39;67.72;97045.03;1802471;78;21098;-81
2021/10/17 09:55:32;;;;;;;4.90;3.20;;;;;;;8.42;65.76;97040.84;1777846;77;21080;-81
2021/10/17 09:57:59;;;;;;;4.22;3.17;;;;;;;8.48;65.92;97038.14;1775613;78;21098;-81
2021/10/17 10:00:24;;;;;;;7.28;3.60;;;;;;;8.52;65.19;97042.05;1792143;78;21059;-82
2021/10/17 10:02:52;;;;;;;7.08;3.60;;;;;;;8.51;64.78;97040.42;1773503;78;21073;-81
2021/10/17 10:05:29;;;;;;;5.40;3.10;;;;;;;8.55;66.26;97037.84;1790953;78;21160;-81
2021/10/17 10:08:00;;;;;;;3.72;3.27;;;;;;;8.59;65.83;97032.68;1745482;80;21564;-81
2021/10/17 10:10:29;;;;;;;4.87;3.37;;;;;;;8.66;64.73;97025.94;1748252;80;21081;-83
2021/10/17 10:12:58;;;;;;;4.67;3.42;;;;;;;8.68;64.58;97022.70;1741006;80;21090;-81
2021/10/17 10:15:25;;;;;;;5.45;3.80;;;;;;;8.76;65.92;97021.92;1740238;80;21039;-81
2021/10/17 10:17:51;;;;;;;4.70;3.80;;;;;;;8.82;65.37;97027.32;1711246;81;21159;-81
2021/10/17 10:20:16;;;;;;;6.87;3.65;;;;;;;8.86;64.84;97023.45;1759956;79;21170;-81
2021/10/17 10:22:44;;;;;;;4.90;3.70;;;;;;;8.93;65.05;97023.14;1753657;78;21284;-81
2021/10/17 10:25:10;;;;;;;5.35;3.12;;;;;;;9.00;64.58;97022.86;1815010;76;21462;-82
2021/10/17 10:30:27;;;;;;;5.20;3.40;;;;;;;9.12;62.36;97024.70;1732917;79;21481;-81
2021/10/17 10:33:18;;;;;;;6.30;3.75;;;;;;;9.18;64.05;97021.95;1784904;78;20995;-81
2021/10/17 10:36:16;;;;;;;4.93;3.97;;;;;;;9.30;64.99;97018.11;1796050;77;21129;-81
2021/10/17 10:38:57;;;;;;;5.00;3.83;;;;;;;9.38;61.65;97020.70;1754360;79;21054;-81
2021/10/17 10:41:28;;;;;;;5.67;3.58;;;;;;;9.28;62.70;97000.11;1776220;79;21102;-81
2021/10/17 10:44:17;;;;;;;6.47;4.45;;;;;;;9.41;61.42;97016.48;1770427;79;21067;-81
2021/10/17 10:49:08;;;;;;;5.12;3.65;;;;;;;9.60;62.32;97014.13;1775326;78;21212;-82
2021/10/17 10:51:39;;;;;;;7.10;4.30;;;;;;;9.67;62.02;97020.28;1783411;79;21130;-81
2021/10/17 10:54:06;;;;;;;7.50;4.05;;;;;;;9.73;62.13;97018.33;1785667;77;21705;-82
2021/10/17 10:56:45;;;;;;;4.83;3.92;;;;;;;9.80;61.69;97015.92;1800874;77;21147;-81
2021/10/17 10:59:12;;;;;;;9.28;3.80;;;;;;;9.83;61.06;97009.11;1783581;77;21082;-82
2021/10/17 11:01:47;;;;;;;6.33;4.30;;;;;;;9.82;61.21;97013.97;1815681;77;21452;-82
2021/10/17 11:04:41;;;;;;;6.60;4.17;;;;;;;9.86;61.69;97013.97;1789584;78;21103;-81
2021/10/17 11:07:23;;;;;;;5.85;4.08;;;;;;;9.84;62.10;97010.73;1784041;78;21031;-81
2021/10/17 11:12:40;;;;;;;4.92;4.08;;;;;;;9.75;63.27;97004.70;1760312;79;21426;-82
2021/10/17 11:15:08;;;;;;;6.90;4.35;;;;;;;9.68;63.66;97010.71;1737584;80;21083;-82
2021/10/17 11:17:33;;;;;;;5.17;3.92;;;;;;;9.69;63.47;97005.84;1751462;79;21068;-82
2021/10/17 11:19:59;;;;;;;6.75;4.22;;;;;;;9.73;63.25;97004.55;1724679;81;21459;-82
2021/10/17 11:22:25;;;;;;;5.20;3.98;;;;;;;9.83;63.73;97002.62;1735868;77;21055;-82
2021/10/17 11:27:18;;;;;;;6.05;4.25;;;;;;;9.96;62.00;97006.03;1767857;79;21114;-81
2021/10/17 11:29:45;;;;;;;6.33;4.85;;;;;;;9.99;61.75;97001.33;1786107;77;21051;-82
2021/10/17 11:32:18;;;;;;;5.87;4.95;;;;;;;10.07;62.22;97000.49;1796145;77;21046;-82
2021/10/17 11:34:56;;;;;;;6.85;4.95;;;;;;;10.06;60.36;96993.19;1789387;77;21116;-82
2021/10/17 11:37:26;;;;;;;8.20;5.37;;;;;;;10.07;60.67;96991.41;1773312;78;21039;-82
2021/10/17 11:42:25;;;;;;;12.45;7.30;;;;;;;10.01;60.90;96978.60;1759733;79;21059;-81
2021/10/17 11:44:51;;;;;;;11.90;6.37;;;;;;;10.10;60.89;96983.31;1789218;78;21523;-82
2021/10/17 11:47:20;;;;;;;7.22;4.40;;;;;;;10.15;62.71;96979.73;1768654;77;21118;-82
2021/10/17 11:49:51;;;;;;;7.72;4.67;;;;;;;10.17;62.56;96978.59;1800003;78;21082;-82
2021/10/17 11:52:16;;;;;;;7.72;4.53;;;;;;;10.20;61.89;96978.73;1802747;77;21118;-82
2021/10/17 11:54:42;;;;;;;6.72;4.35;;;;;;;10.28;61.54;96970.17;1773719;79;21015;-82
2021/10/17 11:57:09;;;;;;;5.55;4.60;;;;;;;10.29;60.44;96966.59;1741631;79;21082;-82